sensor_id;sensor_type;location;lat;lon;timestamp;temperature;humidity
13616;DHT22;6879;51.368;6.782;2023-08-30T00:01:33;12.90;99.90
13616;DHT22;6879;51.368;6.782;2023-08-30T00:04:03;12.90;99.90
13616;DHT22;6879;51.368;6.782;2023-08-30T00:06:32;12.90;99.90
13616;DHT22;6879;51.368;6.782;2023-08-30T00:09:05;12.90;99.90
13616;DHT22;6879;51.368;6.782;2023-08-30T00:11:37;12.90;99.90
13616;DHT22;6879;51.368;6.782;2023-08-30T00:14:09;12.90;99.90
13616;DHT22;6879;51.368;6.782;2023-08-30T00:16:38;12.90;99.90
13616;DHT22;6879;51.368;6.782;2023-08-30T00:19:07;12.90;99.90
13616;DHT22;6879;51.368;6.782;2023-08-30T00:21:37;13.00;99.90
13616;DHT22;6879;51.368;6.782;2023-08-30T00:24:08;12.90;99.90
13616;DHT22;6879;51.368;6.782;2023-08-30T00:26:38;12.80;99.90
13616;DHT22;6879;51.368;6.782;2023-08-30T00:29:09;12.90;99.90
13616;DHT22;6879;51.368;6.782;2023-08-30T00:31:39;13.00;99.90
13616;DHT22;6879;51.368;6.782;2023-08-30T00:34:08;13.00;99.90
13616;DHT22;6879;51.368;6.782;2023-08-30T00:36:38;13.00;99.90
13616;DHT22;6879;51.368;6.782;2023-08-30T00:39:10;12.90;99.90
13616;DHT22;6879;51.368;6.782;2023-08-30T00:41:40;12.90;99.90
13616;DHT22;6879;51.368;6.782;2023-08-30T00:44:10;12.80;99.90
13616;DHT22;6879;51.368;6.782;2023-08-30T00:46:40;12.70;99.90
13616;DHT22;6879;51.368;6.782;2023-08-30T00:49:10;12.70;99.90
13616;DHT22;6879;51.368;6.782;2023-08-30T00:51:40;12.70;99.90
13616;DHT22;6879;51.368;6.782;2023-08-30T00:54:11;12.70;99.90
13616;DHT22;6879;51.368;6.782;2023-08-30T00:56:41;12.60;99.90
13616;DHT22;6879;51.368;6.782;2023-08-30T00:59:10;12.50;99.90
13616;DHT22;6879;51.368;6.782;2023-08-30T01:01:40;12.50;99.90
13616;DHT22;6879;51.368;6.782;2023-08-30T01:04:10;12.40;99.90
13616;DHT22;6879;51.368;6.782;2023-08-30T01:06:39;12.40;99.90
13616;DHT22;6879;51.368;6.782;2023-08-30T01:09:08;12.40;99.90
13616;DHT22;6879;51.368;6.782;2023-08-30T01:11:48;12.40;99.90
13616;DHT22;6879;51.368;6.782;2023-08-30T01:14:22;12.40;99.90
13616;DHT22;6879;51.368;6.782;2023-08-30T01:16:54;12.30;99.90
13616;DHT22;6879;51.368;6.782;2023-08-30T01:19:36;12.30;99.90
13616;DHT22;6879;51.368;6.782;2023-08-30T01:22:14;12.20;99.90
13616;DHT22;6879;51.368;6.782;2023-08-30T01:24:48;12.30;99.90
13616;DHT22;6879;51.368;6.782;2023-08-30T01:27:24;12.40;99.90
13616;DHT22;6879;51.368;6.782;2023-08-30T01:29:54;12.40;99.90
13616;DHT22;6879;51.368;6.782;2023-08-30T01:32:25;12.30;99.90
13616;DHT22;6879;51.368;6.782;2023-08-30T01:34:56;12.30;99.90
13616;DHT22;6879;51.368;6.782;2023-08-30T01:37:25;12.30;99.90
13616;DHT22;6879;51.368;6.782;2023-08-30T01:39:55;12.30;99.90
13616;DHT22;6879;51.368;6.782;2023-08-30T01:42:26;12.20;99.90
13616;DHT22;6879;51.368;6.782;2023-08-30T01:44:58;12.20;99.90
13616;DHT22;6879;51.368;6.782;2023-08-30T01:47:30;12.20;99.90
13616;DHT22;6879;51.368;6.782;2023-08-30T01:50:01;12.20;99.90
13616;DHT22;6879;51.368;6.782;2023-08-30T01:52:32;12.30;99.90
13616;DHT22;6879;51.368;6.782;2023-08-30T01:55:02;12.30;99.90
13616;DHT22;6879;51.368;6.782;2023-08-30T01:57:33;12.30;99.90
13616;DHT22;6879;51.368;6.782;2023-08-30T02:00:03;12.40;99.90
13616;DHT22;6879;51.368;6.782;2023-08-30T02:02:41;12.30;99.90
13616;DHT22;6879;51.368;6.782;2023-08-30T02:05:11;12.40;99.90
13616;DHT22;6879;51.368;6.782;2023-08-30T02:07:47;12.40;99.90
13616;DHT22;6879;51.368;6.782;2023-08-30T02:10:22;12.40;99.90
13616;DHT22;6879;51.368;6.782;2023-08-30T02:12:55;12.30;99.90
13616;DHT22;6879;51.368;6.782;2023-08-30T02:15:25;12.20;99.90
13616;DHT22;6879;51.368;6.782;2023-08-30T02:17:57;12.00;99.90
13616;DHT22;6879;51.368;6.782;2023-08-30T02:20:26;11.90;99.90
13616;DHT22;6879;51.368;6.782;2023-08-30T02:22:58;11.80;99.90
13616;DHT22;6879;51.368;6.782;2023-08-30T02:25:40;11.70;99.90
13616;DHT22;6879;51.368;6.782;2023-08-30T02:28:12;11.70;99.90
13616;DHT22;6879;51.368;6.782;2023-08-30T02:30:41;11.70;99.90
13616;DHT22;6879;51.368;6.782;2023-08-30T02:33:10;11.60;99.90
13616;DHT22;6879;51.368;6.782;2023-08-30T02:35:38;11.60;99.90
13616;DHT22;6879;51.368;6.782;2023-08-30T02:38:10;11.50;99.90
13616;DHT22;6879;51.368;6.782;2023-08-30T02:40:40;11.60;99.90
13616;DHT22;6879;51.368;6.782;2023-08-30T02:43:10;11.60;99.90
13616;DHT22;6879;51.368;6.782;2023-08-30T02:45:40;11.50;99.90
13616;DHT22;6879;51.368;6.782;2023-08-30T02:48:11;11.50;99.90
13616;DHT22;6879;51.368;6.782;2023-08-30T02:50:40;11.60;99.90
13616;DHT22;6879;51.368;6.782;2023-08-30T02:53:09;11.60;99.90
13616;DHT22;6879;51.368;6.782;2023-08-30T02:55:38;11.70;99.90
13616;DHT22;6879;51.368;6.782;2023-08-30T02:58:07;11.70;99.90
13616;DHT22;6879;51.368;6.782;2023-08-30T03:00:40;11.50;99.90
13616;DHT22;6879;51.368;6.782;2023-08-30T03:03:09;11.40;99.90
13616;DHT22;6879;51.368;6.782;2023-08-30T03:05:38;11.30;99.90
13616;DHT22;6879;51.368;6.782;2023-08-30T03:08:08;11.30;99.90
13616;DHT22;6879;51.368;6.782;2023-08-30T03:10:38;11.20;99.90
13616;DHT22;6879;51.368;6.782;2023-08-30T03:13:07;11.30;99.90
13616;DHT22;6879;51.368;6.782;2023-08-30T03:15:37;11.30;99.90
13616;DHT22;6879;51.368;6.782;2023-08-30T03:18:07;11.30;99.90
13616;DHT22;6879;51.368;6.782;2023-08-30T03:20:37;11.20;99.90
13616;DHT22;6879;51.368;6.782;2023-08-30T03:23:06;11.20;99.90
13616;DHT22;6879;51.368;6.782;2023-08-30T03:25:38;11.10;99.90
13616;DHT22;6879;51.368;6.782;2023-08-30T03:28:07;11.10;99.90
13616;DHT22;6879;51.368;6.782;2023-08-30T03:30:36;11.00;99.90
13616;DHT22;6879;51.368;6.782;2023-08-30T03:33:06;10.80;99.90
13616;DHT22;6879;51.368;6.782;2023-08-30T03:35:37;10.70;99.90
13616;DHT22;6879;51.368;6.782;2023-08-30T03:38:05;10.70;99.90
13616;DHT22;6879;51.368;6.782;2023-08-30T03:40:35;10.60;99.90
13616;DHT22;6879;51.368;6.782;2023-08-30T03:43:04;10.50;99.90
13616;DHT22;6879;51.368;6.782;2023-08-30T03:45:35;10.40;99.90
13616;DHT22;6879;51.368;6.782;2023-08-30T03:48:04;10.50;99.90
13616;DHT22;6879;51.368;6.782;2023-08-30T03:50:36;10.40;99.90
13616;DHT22;6879;51.368;6.782;2023-08-30T03:53:06;10.40;99.90
13616;DHT22;6879;51.368;6.782;2023-08-30T03:55:40;10.30;99.90
13616;DHT22;6879;51.368;6.782;2023-08-30T03:58:09;10.30;99.90
13616;DHT22;6879;51.368;6.782;2023-08-30T04:00:38;10.30;99.90
13616;DHT22;6879;51.368;6.782;2023-08-30T04:03:08;10.30;99.90
13616;DHT22;6879;51.368;6.782;2023-08-30T04:05:39;10.30;99.90
13616;DHT22;6879;51.368;6.782;2023-08-30T04:08:09;10.30;99.90
13616;DHT22;6879;51.368;6.782;2023-08-30T04:10:40;10.30;99.90
13616;DHT22;6879;51.368;6.782;2023-08-30T04:13:09;10.30;99.90
13616;DHT22;6879;51.368;6.782;2023-08-30T04:15:39;10.40;99.90
13616;DHT22;6879;51.368;6.782;2023-08-30T04:18:09;10.30;99.90
13616;DHT22;6879;51.368;6.782;2023-08-30T04:20:43;10.40;99.90
13616;DHT22;6879;51.368;6.782;2023-08-30T04:23:13;10.40;99.90
13616;DHT22;6879;51.368;6.782;2023-08-30T04:25:44;10.40;99.90
13616;DHT22;6879;51.368;6.782;2023-08-30T04:28:16;10.40;99.90
13616;DHT22;6879;51.368;6.782;2023-08-30T04:30:44;10.50;99.90
13616;DHT22;6879;51.368;6.782;2023-08-30T04:33:13;10.70;99.90
13616;DHT22;6879;51.368;6.782;2023-08-30T04:35:50;10.80;99.90
13616;DHT22;6879;51.368;6.782;2023-08-30T04:38:19;11.00;99.90
13616;DHT22;6879;51.368;6.782;2023-08-30T04:40:48;11.10;99.90
13616;DHT22;6879;51.368;6.782;2023-08-30T04:43:17;11.10;99.90
13616;DHT22;6879;51.368;6.782;2023-08-30T04:45:47;11.10;99.90
13616;DHT22;6879;51.368;6.782;2023-08-30T04:48:16;11.10;99.90
13616;DHT22;6879;51.368;6.782;2023-08-30T04:50:49;11.20;99.90
13616;DHT22;6879;51.368;6.782;2023-08-30T04:53:17;11.30;99.90
13616;DHT22;6879;51.368;6.782;2023-08-30T04:55:46;11.30;99.90
13616;DHT22;6879;51.368;6.782;2023-08-30T04:58:15;11.40;99.90
13616;DHT22;6879;51.368;6.782;2023-08-30T05:00:44;11.40;99.90
13616;DHT22;6879;51.368;6.782;2023-08-30T05:03:13;11.40;99.90
13616;DHT22;6879;51.368;6.782;2023-08-30T05:05:45;11.40;99.90
13616;DHT22;6879;51.368;6.782;2023-08-30T05:08:18;11.50;99.90
13616;DHT22;6879;51.368;6.782;2023-08-30T05:10:48;11.50;99.90
13616;DHT22;6879;51.368;6.782;2023-08-30T05:13:17;11.60;99.90
13616;DHT22;6879;51.368;6.782;2023-08-30T05:15:45;11.70;99.90
13616;DHT22;6879;51.368;6.782;2023-08-30T05:18:14;11.70;99.90
13616;DHT22;6879;51.368;6.782;2023-08-30T05:20:43;11.80;99.90
13616;DHT22;6879;51.368;6.782;2023-08-30T05:23:12;11.90;99.90
13616;DHT22;6879;51.368;6.782;2023-08-30T05:25:42;12.00;99.90
13616;DHT22;6879;51.368;6.782;2023-08-30T05:28:12;12.10;99.90
13616;DHT22;6879;51.368;6.782;2023-08-30T05:30:42;12.10;99.90
13616;DHT22;6879;51.368;6.782;2023-08-30T05:33:26;12.20;99.90
13616;DHT22;6879;51.368;6.782;2023-08-30T05:36:15;12.30;99.90
13616;DHT22;6879;51.368;6.782;2023-08-30T05:39:03;12.40;99.90
13616;DHT22;6879;51.368;6.782;2023-08-30T05:41:35;12.50;99.90
13616;DHT22;6879;51.368;6.782;2023-08-30T05:44:05;12.50;99.90
13616;DHT22;6879;51.368;6.782;2023-08-30T05:46:34;12.50;99.90
13616;DHT22;6879;51.368;6.782;2023-08-30T05:49:03;12.50;99.90
13616;DHT22;6879;51.368;6.782;2023-08-30T05:51:34;12.60;99.90
13616;DHT22;6879;51.368;6.782;2023-08-30T05:54:03;12.70;99.90
13616;DHT22;6879;51.368;6.782;2023-08-30T05:56:32;12.80;99.90
13616;DHT22;6879;51.368;6.782;2023-08-30T05:59:03;12.90;99.90
13616;DHT22;6879;51.368;6.782;2023-08-30T06:01:31;13.00;99.90
13616;DHT22;6879;51.368;6.782;2023-08-30T06:04:00;13.10;99.90
13616;DHT22;6879;51.368;6.782;2023-08-30T06:06:31;13.20;99.90
13616;DHT22;6879;51.368;6.782;2023-08-30T06:09:00;13.30;99.90
13616;DHT22;6879;51.368;6.782;2023-08-30T06:11:29;13.30;99.90
13616;DHT22;6879;51.368;6.782;2023-08-30T06:13:57;13.40;99.90
13616;DHT22;6879;51.368;6.782;2023-08-30T06:16:28;13.50;99.90
13616;DHT22;6879;51.368;6.782;2023-08-30T06:18:57;13.60;99.90
13616;DHT22;6879;51.368;6.782;2023-08-30T06:21:27;13.70;99.90
13616;DHT22;6879;51.368;6.782;2023-08-30T06:23:56;13.80;99.90
13616;DHT22;6879;51.368;6.782;2023-08-30T06:26:25;13.90;99.90
13616;DHT22;6879;51.368;6.782;2023-08-30T06:28:53;14.00;99.90
13616;DHT22;6879;51.368;6.782;2023-08-30T06:31:32;14.00;99.90
13616;DHT22;6879;51.368;6.782;2023-08-30T06:34:00;14.20;99.90
13616;DHT22;6879;51.368;6.782;2023-08-30T06:36:29;14.30;99.90
13616;DHT22;6879;51.368;6.782;2023-08-30T06:38:58;14.40;99.90
13616;DHT22;6879;51.368;6.782;2023-08-30T06:41:27;14.50;99.90
13616;DHT22;6879;51.368;6.782;2023-08-30T06:43:56;14.70;99.90
13616;DHT22;6879;51.368;6.782;2023-08-30T06:46:25;14.80;99.90
13616;DHT22;6879;51.368;6.782;2023-08-30T06:48:55;14.90;99.90
13616;DHT22;6879;51.368;6.782;2023-08-30T06:51:24;15.00;99.90
13616;DHT22;6879;51.368;6.782;2023-08-30T06:53:54;15.10;99.90
13616;DHT22;6879;51.368;6.782;2023-08-30T06:56:27;15.20;99.90
13616;DHT22;6879;51.368;6.782;2023-08-30T06:58:56;15.40;99.90
13616;DHT22;6879;51.368;6.782;2023-08-30T07:01:25;15.50;99.90
13616;DHT22;6879;51.368;6.782;2023-08-30T07:03:55;15.70;99.90
13616;DHT22;6879;51.368;6.782;2023-08-30T07:06:24;15.80;99.90
13616;DHT22;6879;51.368;6.782;2023-08-30T07:08:57;15.90;99.90
13616;DHT22;6879;51.368;6.782;2023-08-30T07:11:25;16.10;99.90
13616;DHT22;6879;51.368;6.782;2023-08-30T07:14:00;16.20;99.90
13616;DHT22;6879;51.368;6.782;2023-08-30T07:16:29;16.20;99.90
13616;DHT22;6879;51.368;6.782;2023-08-30T07:19:00;16.30;99.90
13616;DHT22;6879;51.368;6.782;2023-08-30T07:21:31;16.50;99.90
13616;DHT22;6879;51.368;6.782;2023-08-30T07:24:04;16.60;99.90
13616;DHT22;6879;51.368;6.782;2023-08-30T07:26:33;16.60;99.90
13616;DHT22;6879;51.368;6.782;2023-08-30T07:29:03;16.70;99.90
13616;DHT22;6879;51.368;6.782;2023-08-30T07:31:33;16.70;99.90
13616;DHT22;6879;51.368;6.782;2023-08-30T07:34:03;16.80;99.90
13616;DHT22;6879;51.368;6.782;2023-08-30T07:36:32;17.00;99.90
13616;DHT22;6879;51.368;6.782;2023-08-30T07:39:13;17.10;99.90
13616;DHT22;6879;51.368;6.782;2023-08-30T07:41:42;17.20;99.90
13616;DHT22;6879;51.368;6.782;2023-08-30T07:44:11;17.40;99.90
13616;DHT22;6879;51.368;6.782;2023-08-30T07:46:40;17.50;99.90
13616;DHT22;6879;51.368;6.782;2023-08-30T07:49:10;17.50;99.90
13616;DHT22;6879;51.368;6.782;2023-08-30T07:51:39;17.60;99.90
13616;DHT22;6879;51.368;6.782;2023-08-30T07:54:08;17.80;99.90
13616;DHT22;6879;51.368;6.782;2023-08-30T07:56:36;18.10;99.90
13616;DHT22;6879;51.368;6.782;2023-08-30T07:59:05;18.20;99.90
13616;DHT22;6879;51.368;6.782;2023-08-30T08:01:34;18.30;99.90
13616;DHT22;6879;51.368;6.782;2023-08-30T08:04:03;18.50;99.90
13616;DHT22;6879;51.368;6.782;2023-08-30T08:06:35;18.50;99.90
13616;DHT22;6879;51.368;6.782;2023-08-30T08:09:06;18.80;99.90
13616;DHT22;6879;51.368;6.782;2023-08-30T08:11:36;19.10;99.90
13616;DHT22;6879;51.368;6.782;2023-08-30T08:14:07;19.40;99.90
13616;DHT22;6879;51.368;6.782;2023-08-30T08:16:36;19.50;99.90
13616;DHT22;6879;51.368;6.782;2023-08-30T08:19:05;19.60;99.90
13616;DHT22;6879;51.368;6.782;2023-08-30T08:21:36;19.70;99.90
13616;DHT22;6879;51.368;6.782;2023-08-30T08:24:06;19.60;99.90
13616;DHT22;6879;51.368;6.782;2023-08-30T08:26:35;19.60;99.90
13616;DHT22;6879;51.368;6.782;2023-08-30T08:29:07;19.50;99.90
13616;DHT22;6879;51.368;6.782;2023-08-30T08:31:36;19.60;99.90
13616;DHT22;6879;51.368;6.782;2023-08-30T08:34:08;19.80;99.90
13616;DHT22;6879;51.368;6.782;2023-08-30T08:36:40;20.10;99.90
13616;DHT22;6879;51.368;6.782;2023-08-30T08:39:10;20.30;99.90
13616;DHT22;6879;51.368;6.782;2023-08-30T08:41:42;20.40;99.80
13616;DHT22;6879;51.368;6.782;2023-08-30T08:44:11;20.60;99.40
13616;DHT22;6879;51.368;6.782;2023-08-30T08:46:41;20.80;99.20
13616;DHT22;6879;51.368;6.782;2023-08-30T08:49:12;21.00;97.90
13616;DHT22;6879;51.368;6.782;2023-08-30T08:51:44;20.90;97.80
13616;DHT22;6879;51.368;6.782;2023-08-30T08:54:13;21.10;98.10
13616;DHT22;6879;51.368;6.782;2023-08-30T08:56:42;21.40;96.90
13616;DHT22;6879;51.368;6.782;2023-08-30T08:59:12;21.50;97.20
13616;DHT22;6879;51.368;6.782;2023-08-30T09:01:41;20.90;97.80
13616;DHT22;6879;51.368;6.782;2023-08-30T09:04:10;20.30;99.90
13616;DHT22;6879;51.368;6.782;2023-08-30T09:06:40;19.90;99.90
13616;DHT22;6879;51.368;6.782;2023-08-30T09:09:12;19.60;99.90
13616;DHT22;6879;51.368;6.782;2023-08-30T09:11:42;19.60;99.90
13616;DHT22;6879;51.368;6.782;2023-08-30T09:14:18;19.70;99.90
13616;DHT22;6879;51.368;6.782;2023-08-30T09:17:00;19.80;99.90
13616;DHT22;6879;51.368;6.782;2023-08-30T09:19:29;19.60;99.90
13616;DHT22;6879;51.368;6.782;2023-08-30T09:21:59;19.50;99.90
13616;DHT22;6879;51.368;6.782;2023-08-30T09:24:39;19.50;99.90
13616;DHT22;6879;51.368;6.782;2023-08-30T09:27:08;19.10;99.90
13616;DHT22;6879;51.368;6.782;2023-08-30T09:29:36;18.90;99.90
13616;DHT22;6879;51.368;6.782;2023-08-30T09:32:08;18.70;99.90
13616;DHT22;6879;51.368;6.782;2023-08-30T09:34:45;18.50;99.90
13616;DHT22;6879;51.368;6.782;2023-08-30T09:37:21;18.60;99.90
13616;DHT22;6879;51.368;6.782;2023-08-30T09:39:52;18.70;99.90
13616;DHT22;6879;51.368;6.782;2023-08-30T09:42:21;18.40;99.90
13616;DHT22;6879;51.368;6.782;2023-08-30T09:44:50;18.00;99.90
13616;DHT22;6879;51.368;6.782;2023-08-30T09:47:19;17.30;99.90
13616;DHT22;6879;51.368;6.782;2023-08-30T09:49:49;16.90;99.90
13616;DHT22;6879;51.368;6.782;2023-08-30T09:52:20;16.70;99.90
13616;DHT22;6879;51.368;6.782;2023-08-30T09:54:53;16.60;99.90
13616;DHT22;6879;51.368;6.782;2023-08-30T09:57:23;16.50;99.90
13616;DHT22;6879;51.368;6.782;2023-08-30T09:59:52;16.50;99.90
13616;DHT22;6879;51.368;6.782;2023-08-30T10:02:21;16.50;99.90
13616;DHT22;6879;51.368;6.782;2023-08-30T10:04:51;16.50;99.90
13616;DHT22;6879;51.368;6.782;2023-08-30T10:07:21;16.60;99.90
13616;DHT22;6879;51.368;6.782;2023-08-30T10:09:53;16.60;99.90
13616;DHT22;6879;51.368;6.782;2023-08-30T10:12:29;16.60;99.90
13616;DHT22;6879;51.368;6.782;2023-08-30T10:15:00;16.50;99.90
13616;DHT22;6879;51.368;6.782;2023-08-30T10:17:32;16.50;99.90
13616;DHT22;6879;51.368;6.782;2023-08-30T10:20:05;16.50;99.90
13616;DHT22;6879;51.368;6.782;2023-08-30T10:22:36;16.50;99.90
13616;DHT22;6879;51.368;6.782;2023-08-30T10:25:11;16.50;99.90
13616;DHT22;6879;51.368;6.782;2023-08-30T10:27:46;16.50;99.90
13616;DHT22;6879;51.368;6.782;2023-08-30T10:30:18;16.40;99.90
13616;DHT22;6879;51.368;6.782;2023-08-30T10:32:47;16.40;99.90
13616;DHT22;6879;51.368;6.782;2023-08-30T10:35:18;16.50;99.90
13616;DHT22;6879;51.368;6.782;2023-08-30T10:37:59;16.60;99.90
13616;DHT22;6879;51.368;6.782;2023-08-30T10:40:29;16.50;99.90
13616;DHT22;6879;51.368;6.782;2023-08-30T10:43:01;16.30;99.90
13616;DHT22;6879;51.368;6.782;2023-08-30T10:45:30;16.20;99.90
13616;DHT22;6879;51.368;6.782;2023-08-30T10:48:00;16.10;99.90
13616;DHT22;6879;51.368;6.782;2023-08-30T10:50:29;15.90;99.90
13616;DHT22;6879;51.368;6.782;2023-08-30T10:52:59;15.80;99.90
13616;DHT22;6879;51.368;6.782;2023-08-30T10:55:30;15.80;99.90
13616;DHT22;6879;51.368;6.782;2023-08-30T10:58:00;15.80;99.90
13616;DHT22;6879;51.368;6.782;2023-08-30T11:00:31;15.80;99.90
13616;DHT22;6879;51.368;6.782;2023-08-30T11:03:00;15.80;99.90
13616;DHT22;6879;51.368;6.782;2023-08-30T11:05:29;15.80;99.90
13616;DHT22;6879;51.368;6.782;2023-08-30T11:07:58;15.80;99.90
13616;DHT22;6879;51.368;6.782;2023-08-30T11:10:28;15.80;99.90
13616;DHT22;6879;51.368;6.782;2023-08-30T11:12:57;15.70;99.90
13616;DHT22;6879;51.368;6.782;2023-08-30T11:15:26;15.70;99.90
13616;DHT22;6879;51.368;6.782;2023-08-30T11:18:02;15.70;99.90
13616;DHT22;6879;51.368;6.782;2023-08-30T11:20:31;15.70;99.90
13616;DHT22;6879;51.368;6.782;2023-08-30T11:23:02;15.70;99.90
13616;DHT22;6879;51.368;6.782;2023-08-30T11:25:32;15.70;99.90
13616;DHT22;6879;51.368;6.782;2023-08-30T11:28:05;15.70;99.90
13616;DHT22;6879;51.368;6.782;2023-08-30T11:30:40;15.70;99.90
13616;DHT22;6879;51.368;6.782;2023-08-30T11:33:08;15.80;99.90
13616;DHT22;6879;51.368;6.782;2023-08-30T11:35:39;15.90;99.90
13616;DHT22;6879;51.368;6.782;2023-08-30T11:38:08;15.90;99.90
13616;DHT22;6879;51.368;6.782;2023-08-30T11:40:38;16.00;99.90
13616;DHT22;6879;51.368;6.782;2023-08-30T11:43:07;16.10;99.90
13616;DHT22;6879;51.368;6.782;2023-08-30T11:45:37;16.10;99.90
13616;DHT22;6879;51.368;6.782;2023-08-30T11:48:06;16.10;99.90
13616;DHT22;6879;51.368;6.782;2023-08-30T11:50:35;16.00;99.90
13616;DHT22;6879;51.368;6.782;2023-08-30T11:53:14;16.00;99.90
13616;DHT22;6879;51.368;6.782;2023-08-30T11:55:45;16.10;99.90
13616;DHT22;6879;51.368;6.782;2023-08-30T11:58:14;16.10;99.90
13616;DHT22;6879;51.368;6.782;2023-08-30T12:00:43;16.10;99.90
13616;DHT22;6879;51.368;6.782;2023-08-30T12:03:13;16.20;99.90
13616;DHT22;6879;51.368;6.782;2023-08-30T12:05:46;16.30;99.90
13616;DHT22;6879;51.368;6.782;2023-08-30T12:08:19;16.40;99.90
13616;DHT22;6879;51.368;6.782;2023-08-30T12:10:49;16.40;99.90
13616;DHT22;6879;51.368;6.782;2023-08-30T12:13:22;16.50;99.90
13616;DHT22;6879;51.368;6.782;2023-08-30T12:15:51;16.50;99.90
13616;DHT22;6879;51.368;6.782;2023-08-30T12:18:24;16.50;99.90
13616;DHT22;6879;51.368;6.782;2023-08-30T12:20:59;16.50;99.90
13616;DHT22;6879;51.368;6.782;2023-08-30T12:23:29;16.50;99.90
13616;DHT22;6879;51.368;6.782;2023-08-30T12:26:00;16.50;99.90
13616;DHT22;6879;51.368;6.782;2023-08-30T12:28:32;16.50;99.90
13616;DHT22;6879;51.368;6.782;2023-08-30T12:31:02;16.60;99.90
13616;DHT22;6879;51.368;6.782;2023-08-30T12:33:31;16.60;99.90
13616;DHT22;6879;51.368;6.782;2023-08-30T12:36:00;16.60;99.90
13616;DHT22;6879;51.368;6.782;2023-08-30T12:38:29;16.60;99.90
13616;DHT22;6879;51.368;6.782;2023-08-30T12:41:00;16.40;99.90
13616;DHT22;6879;51.368;6.782;2023-08-30T12:43:30;16.40;99.90
13616;DHT22;6879;51.368;6.782;2023-08-30T12:46:02;16.40;99.90
13616;DHT22;6879;51.368;6.782;2023-08-30T12:48:31;16.30;99.90
13616;DHT22;6879;51.368;6.782;2023-08-30T12:51:00;16.20;99.90
13616;DHT22;6879;51.368;6.782;2023-08-30T12:53:30;16.10;99.90
13616;DHT22;6879;51.368;6.782;2023-08-30T12:56:01;16.00;99.90
13616;DHT22;6879;51.368;6.782;2023-08-30T12:58:31;16.00;99.90
13616;DHT22;6879;51.368;6.782;2023-08-30T13:01:00;16.00;99.90
13616;DHT22;6879;51.368;6.782;2023-08-30T13:03:28;16.10;99.90
13616;DHT22;6879;51.368;6.782;2023-08-30T13:05:57;16.10;99.90
13616;DHT22;6879;51.368;6.782;2023-08-30T13:08:27;16.10;99.90
13616;DHT22;6879;51.368;6.782;2023-08-30T13:10:55;16.10;99.90
13616;DHT22;6879;51.368;6.782;2023-08-30T13:13:25;16.00;99.90
13616;DHT22;6879;51.368;6.782;2023-08-30T13:15:54;16.00;99.90
13616;DHT22;6879;51.368;6.782;2023-08-30T13:18:23;16.00;99.90
13616;DHT22;6879;51.368;6.782;2023-08-30T13:20:54;15.90;99.90
13616;DHT22;6879;51.368;6.782;2023-08-30T13:23:23;16.00;99.90
13616;DHT22;6879;51.368;6.782;2023-08-30T13:25:52;16.00;99.90
13616;DHT22;6879;51.368;6.782;2023-08-30T13:28:20;16.10;99.90
13616;DHT22;6879;51.368;6.782;2023-08-30T13:30:51;16.10;99.90
13616;DHT22;6879;51.368;6.782;2023-08-30T13:33:21;16.10;99.90
13616;DHT22;6879;51.368;6.782;2023-08-30T13:35:50;16.20;99.90
13616;DHT22;6879;51.368;6.782;2023-08-30T13:38:19;16.20;99.90
13616;DHT22;6879;51.368;6.782;2023-08-30T13:40:50;16.20;99.90
13616;DHT22;6879;51.368;6.782;2023-08-30T13:43:18;16.20;99.90
13616;DHT22;6879;51.368;6.782;2023-08-30T13:45:47;16.00;99.90
13616;DHT22;6879;51.368;6.782;2023-08-30T13:48:17;16.00;99.90
13616;DHT22;6879;51.368;6.782;2023-08-30T13:50:46;15.90;99.90
13616;DHT22;6879;51.368;6.782;2023-08-30T13:53:15;16.00;99.90
13616;DHT22;6879;51.368;6.782;2023-08-30T13:55:45;16.00;99.90
13616;DHT22;6879;51.368;6.782;2023-08-30T13:58:15;15.90;99.90
13616;DHT22;6879;51.368;6.782;2023-08-30T14:00:44;15.80;99.90
13616;DHT22;6879;51.368;6.782;2023-08-30T14:03:17;15.70;99.90
13616;DHT22;6879;51.368;6.782;2023-08-30T14:05:46;15.60;99.90
13616;DHT22;6879;51.368;6.782;2023-08-30T14:08:14;15.60;99.90
13616;DHT22;6879;51.368;6.782;2023-08-30T14:10:43;15.60;99.90
13616;DHT22;6879;51.368;6.782;2023-08-30T14:13:11;15.60;99.90
13616;DHT22;6879;51.368;6.782;2023-08-30T14:15:40;15.70;99.90
13616;DHT22;6879;51.368;6.782;2023-08-30T14:18:09;15.70;99.90
13616;DHT22;6879;51.368;6.782;2023-08-30T14:20:42;15.80;99.90
13616;DHT22;6879;51.368;6.782;2023-08-30T14:23:11;15.90;99.90
13616;DHT22;6879;51.368;6.782;2023-08-30T14:25:43;15.90;99.90
13616;DHT22;6879;51.368;6.782;2023-08-30T14:28:11;15.90;99.90
13616;DHT22;6879;51.368;6.782;2023-08-30T14:30:42;16.00;99.90
13616;DHT22;6879;51.368;6.782;2023-08-30T14:33:10;16.00;99.90
13616;DHT22;6879;51.368;6.782;2023-08-30T14:35:43;16.00;99.90
13616;DHT22;6879;51.368;6.782;2023-08-30T14:38:12;16.00;99.90
13616;DHT22;6879;51.368;6.782;2023-08-30T14:40:41;15.90;99.90
13616;DHT22;6879;51.368;6.782;2023-08-30T14:43:10;15.80;99.90
13616;DHT22;6879;51.368;6.782;2023-08-30T14:45:39;15.70;99.90
13616;DHT22;6879;51.368;6.782;2023-08-30T14:48:08;15.60;99.90
13616;DHT22;6879;51.368;6.782;2023-08-30T14:50:37;15.60;99.90
13616;DHT22;6879;51.368;6.782;2023-08-30T14:53:08;15.50;99.90
13616;DHT22;6879;51.368;6.782;2023-08-30T14:55:36;15.40;99.90
13616;DHT22;6879;51.368;6.782;2023-08-30T14:58:05;15.50;99.90
13616;DHT22;6879;51.368;6.782;2023-08-30T15:00:34;15.50;99.90
13616;DHT22;6879;51.368;6.782;2023-08-30T15:03:03;15.50;99.90
13616;DHT22;6879;51.368;6.782;2023-08-30T15:05:32;15.60;99.90
13616;DHT22;6879;51.368;6.782;2023-08-30T15:08:01;15.60;99.90
13616;DHT22;6879;51.368;6.782;2023-08-30T15:10:31;15.70;99.90
13616;DHT22;6879;51.368;6.782;2023-08-30T15:13:00;15.80;99.90
13616;DHT22;6879;51.368;6.782;2023-08-30T15:15:29;15.80;99.90
13616;DHT22;6879;51.368;6.782;2023-08-30T15:17:58;15.80;99.90
13616;DHT22;6879;51.368;6.782;2023-08-30T15:20:26;15.90;99.90
13616;DHT22;6879;51.368;6.782;2023-08-30T15:22:55;16.00;99.90
13616;DHT22;6879;51.368;6.782;2023-08-30T15:25:26;16.20;99.90
13616;DHT22;6879;51.368;6.782;2023-08-30T15:27:56;16.30;99.90
13616;DHT22;6879;51.368;6.782;2023-08-30T15:30:24;16.40;99.90
13616;DHT22;6879;51.368;6.782;2023-08-30T15:32:53;16.80;99.90
13616;DHT22;6879;51.368;6.782;2023-08-30T15:35:22;17.90;99.90
13616;DHT22;6879;51.368;6.782;2023-08-30T15:37:51;19.40;99.90
13616;DHT22;6879;51.368;6.782;2023-08-30T15:40:19;20.80;99.90
13616;DHT22;6879;51.368;6.782;2023-08-30T15:42:48;21.50;99.90
13616;DHT22;6879;51.368;6.782;2023-08-30T15:45:18;22.30;99.90
13616;DHT22;6879;51.368;6.782;2023-08-30T15:47:47;22.90;99.90
13616;DHT22;6879;51.368;6.782;2023-08-30T15:50:16;23.50;99.90
13616;DHT22;6879;51.368;6.782;2023-08-30T15:52:44;23.40;99.90
13616;DHT22;6879;51.368;6.782;2023-08-30T15:55:13;22.90;99.90
13616;DHT22;6879;51.368;6.782;2023-08-30T15:57:43;22.50;99.90
13616;DHT22;6879;51.368;6.782;2023-08-30T16:00:13;22.70;99.90
13616;DHT22;6879;51.368;6.782;2023-08-30T16:02:43;23.20;99.90
13616;DHT22;6879;51.368;6.782;2023-08-30T16:05:12;23.30;99.90